sensor_id;sensor_type;location;lat;lon;timestamp;pressure;altitude;pressure_sealevel;temperature;humidity
69402;BME280;56589;51.992;5.924;2023-03-23T00:01:09;99697.66;;;10.72;83.10
69402;BME280;56589;51.992;5.924;2023-03-23T00:03:37;99693.25;;;10.72;82.89
69402;BME280;56589;51.992;5.924;2023-03-23T00:06:03;99694.91;;;10.73;83.02
69402;BME280;56589;51.992;5.924;2023-03-23T00:08:32;99701.97;;;10.73;82.65
69402;BME280;56589;51.992;5.924;2023-03-23T00:11:01;99701.13;;;10.72;82.61
69402;BME280;56589;51.992;5.924;2023-03-23T00:13:31;99694.91;;;10.73;82.59
69402;BME280;56589;51.992;5.924;2023-03-23T00:15:59;99684.41;;;10.73;82.83
69402;BME280;56589;51.992;5.924;2023-03-23T00:18:25;99689.53;;;10.75;82.43
69402;BME280;56589;51.992;5.924;2023-03-23T00:20:52;99689.69;;;10.73;82.23
69402;BME280;56589;51.992;5.924;2023-03-23T00:23:22;99693.97;;;10.74;82.37
69402;BME280;56589;51.992;5.924;2023-03-23T00:25:53;99694.66;;;10.76;82.69
69402;BME280;56589;51.992;5.924;2023-03-23T00:28:21;99697.28;;;10.76;82.16
69402;BME280;56589;51.992;5.924;2023-03-23T00:30:46;99684.03;;;10.78;82.55
69402;BME280;56589;51.992;5.924;2023-03-23T00:33:12;99677.94;;;10.77;82.50
69402;BME280;56589;51.992;5.924;2023-03-23T00:35:38;99677.84;;;10.79;81.90
69402;BME280;56589;51.992;5.924;2023-03-23T00:38:05;99685.72;;;10.79;82.23
69402;BME280;56589;51.992;5.924;2023-03-23T00:40:31;99694.41;;;10.79;81.91
69402;BME280;56589;51.992;5.924;2023-03-23T00:43:01;99695.25;;;10.80;81.97
69402;BME280;56589;51.992;5.924;2023-03-23T00:45:28;99696.09;;;10.80;81.99
69402;BME280;56589;51.992;5.924;2023-03-23T00:47:53;99696.09;;;10.80;81.65
69402;BME280;56589;51.992;5.924;2023-03-23T00:50:19;99688.19;;;10.80;81.77
69402;BME280;56589;51.992;5.924;2023-03-23T00:52:45;99695.25;;;10.80;81.98
69402;BME280;56589;51.992;5.924;2023-03-23T00:55:11;99701.34;;;10.80;81.77
69402;BME280;56589;51.992;5.924;2023-03-23T00:57:37;99689.06;;;10.81;81.72
69402;BME280;56589;51.992;5.924;2023-03-23T01:00:07;99690.81;;;10.80;82.00
69402;BME280;56589;51.992;5.924;2023-03-23T01:02:34;99684.75;;;10.80;81.61
69402;BME280;56589;51.992;5.924;2023-03-23T01:05:00;99669.09;;;10.78;81.66
69402;BME280;56589;51.992;5.924;2023-03-23T01:07:26;99671.72;;;10.78;81.45
69402;BME280;56589;51.992;5.924;2023-03-23T01:09:52;99655.97;;;10.78;81.76
69402;BME280;56589;51.992;5.924;2023-03-23T01:12:18;99644.63;;;10.78;81.90
69402;BME280;56589;51.992;5.924;2023-03-23T01:14:44;99619.22;;;10.78;81.78
69402;BME280;56589;51.992;5.924;2023-03-23T01:17:12;99596.69;;;10.76;81.76
69402;BME280;56589;51.992;5.924;2023-03-23T01:19:38;99604.69;;;10.74;81.73
69402;BME280;56589;51.992;5.924;2023-03-23T01:22:04;99614.38;;;10.74;81.56
69402;BME280;56589;51.992;5.924;2023-03-23T01:24:30;99610.91;;;10.73;81.79
69402;BME280;56589;51.992;5.924;2023-03-23T01:26:56;99614.38;;;10.74;81.45
69402;BME280;56589;51.992;5.924;2023-03-23T01:29:22;99625.84;;;10.73;81.56
69402;BME280;56589;51.992;5.924;2023-03-23T01:31:48;99631.19;;;10.71;81.39
69402;BME280;56589;51.992;5.924;2023-03-23T01:34:16;99601.38;;;10.72;81.38
69402;BME280;56589;51.992;5.924;2023-03-23T01:36:42;99590.00;;;10.72;81.62
69402;BME280;56589;51.992;5.924;2023-03-23T01:39:08;99581.22;;;10.73;81.53
69402;BME280;56589;51.992;5.924;2023-03-23T01:41:36;99582.13;;;10.72;81.53
69402;BME280;56589;51.992;5.924;2023-03-23T01:44:04;99571.78;;;10.70;81.29
69402;BME280;56589;51.992;5.924;2023-03-23T01:46:32;99576.06;;;10.71;81.20
69402;BME280;56589;51.992;5.924;2023-03-23T01:49:03;99571.78;;;10.70;81.37
69402;BME280;56589;51.992;5.924;2023-03-23T01:51:37;99574.25;;;10.72;81.26
69402;BME280;56589;51.992;5.924;2023-03-23T01:54:11;99583.09;;;10.71;81.04
69402;BME280;56589;51.992;5.924;2023-03-23T01:56:41;99570.94;;;10.70;81.05
69402;BME280;56589;51.992;5.924;2023-03-23T01:59:13;99572.75;;;10.69;81.20
69402;BME280;56589;51.992;5.924;2023-03-23T02:01:39;99581.59;;;10.68;80.95
69402;BME280;56589;51.992;5.924;2023-03-23T02:04:06;99590.16;;;10.70;80.84
69402;BME280;56589;51.992;5.924;2023-03-23T02:06:32;99582.28;;;10.70;81.37
69402;BME280;56589;51.992;5.924;2023-03-23T02:09:00;99571.78;;;10.70;81.17
69402;BME280;56589;51.992;5.924;2023-03-23T02:11:26;99583.00;;;10.72;81.41
69402;BME280;56589;51.992;5.924;2023-03-23T02:13:52;99578.31;;;10.76;81.13
69402;BME280;56589;51.992;5.924;2023-03-23T02:16:30;99575.69;;;10.76;81.00
69402;BME280;56589;51.992;5.924;2023-03-23T02:19:12;99574.72;;;10.77;81.48
69402;BME280;56589;51.992;5.924;2023-03-23T02:26:05;99545.59;;;10.80;81.50
69402;BME280;56589;51.992;5.924;2023-03-23T02:29:06;99547.38;;;10.79;81.19
69402;BME280;56589;51.992;5.924;2023-03-23T02:31:54;99556.00;;;10.81;81.48
69402;BME280;56589;51.992;5.924;2023-03-23T02:34:35;99554.06;;;10.83;81.10
69402;BME280;56589;51.992;5.924;2023-03-23T02:37:09;99545.09;;;10.86;81.13
69402;BME280;56589;51.992;5.924;2023-03-23T02:39:44;99552.97;;;10.86;81.40
69402;BME280;56589;51.992;5.924;2023-03-23T02:42:15;99550.34;;;10.86;81.42
69402;BME280;56589;51.992;5.924;2023-03-23T02:44:45;99559.88;;;10.87;80.88
69402;BME280;56589;51.992;5.924;2023-03-23T02:47:18;99550.91;;;10.90;81.17
69402;BME280;56589;51.992;5.924;2023-03-23T02:49:52;99551.63;;;10.92;81.13
69402;BME280;56589;51.992;5.924;2023-03-23T02:52:23;99553.28;;;10.93;81.24
69402;BME280;56589;51.992;5.924;2023-03-23T02:54:53;99552.31;;;10.94;81.06
69402;BME280;56589;51.992;5.924;2023-03-23T02:57:22;99553.16;;;10.94;80.76
69402;BME280;56589;51.992;5.924;2023-03-23T02:59:50;99544.16;;;10.97;81.08
69402;BME280;56589;51.992;5.924;2023-03-23T03:02:17;99545.84;;;10.98;80.65
69402;BME280;56589;51.992;5.924;2023-03-23T03:04:53;99544.88;;;10.99;80.57
69402;BME280;56589;51.992;5.924;2023-03-23T03:07:36;99549.16;;;11.00;80.60
69402;BME280;56589;51.992;5.924;2023-03-23T03:10:16;99549.03;;;11.01;81.01
69402;BME280;56589;51.992;5.924;2023-03-23T03:12:55;99549.03;;;11.01;80.59
69402;BME280;56589;51.992;5.924;2023-03-23T03:15:32;99560.25;;;11.03;80.40
69402;BME280;56589;51.992;5.924;2023-03-23T03:18:04;99554.28;;;11.01;80.53
69402;BME280;56589;51.992;5.924;2023-03-23T03:20:43;99560.66;;;10.99;80.41
69402;BME280;56589;51.992;5.924;2023-03-23T03:23:14;99550.13;;;10.99;80.83
69402;BME280;56589;51.992;5.924;2023-03-23T03:25:43;99536.88;;;11.00;80.79
69402;BME280;56589;51.992;5.924;2023-03-23T03:28:11;99541.97;;;11.02;80.41
69402;BME280;56589;51.992;5.924;2023-03-23T03:30:38;99539.25;;;11.03;80.32
69402;BME280;56589;51.992;5.924;2023-03-23T03:33:06;99532.06;;;11.05;80.36
69402;BME280;56589;51.992;5.924;2023-03-23T03:35:38;99536.19;;;11.08;80.20
69402;BME280;56589;51.992;5.924;2023-03-23T03:38:09;99535.22;;;11.09;80.25
69402;BME280;56589;51.992;5.924;2023-03-23T03:40:37;99534.97;;;11.12;80.53
69402;BME280;56589;51.992;5.924;2023-03-23T03:43:04;99545.50;;;11.12;80.20
69402;BME280;56589;51.992;5.924;2023-03-23T03:45:31;99531.53;;;11.12;80.22
69402;BME280;56589;51.992;5.924;2023-03-23T03:47:57;99542.72;;;11.14;80.25
69402;BME280;56589;51.992;5.924;2023-03-23T03:50:23;99533.19;;;11.13;79.90
69402;BME280;56589;51.992;5.924;2023-03-23T03:52:51;99539.97;;;11.15;80.43
69402;BME280;56589;51.992;5.924;2023-03-23T03:55:17;99549.53;;;11.16;80.19
69402;BME280;56589;51.992;5.924;2023-03-23T03:57:43;99550.47;;;11.15;80.16
69402;BME280;56589;51.992;5.924;2023-03-23T04:00:10;99542.59;;;11.15;79.93
69402;BME280;56589;51.992;5.924;2023-03-23T04:02:36;99531.13;;;11.16;79.93
69402;BME280;56589;51.992;5.924;2023-03-23T04:05:04;99535.41;;;11.17;79.57
69402;BME280;56589;51.992;5.924;2023-03-23T04:07:30;99532.94;;;11.16;79.82
69402;BME280;56589;51.992;5.924;2023-03-23T04:09:59;99549.53;;;11.16;79.40
69402;BME280;56589;51.992;5.924;2023-03-23T04:12:25;99535.56;;;11.16;79.86
69402;BME280;56589;51.992;5.924;2023-03-23T04:14:50;99530.16;;;11.17;79.50
69402;BME280;56589;51.992;5.924;2023-03-23T04:17:16;99523.25;;;11.16;79.63
69402;BME280;56589;51.992;5.924;2023-03-23T04:19:42;99527.53;;;11.17;79.67
69402;BME280;56589;51.992;5.924;2023-03-23T04:22:08;99524.63;;;11.20;79.28
69402;BME280;56589;51.992;5.924;2023-03-23T04:24:34;99520.22;;;11.21;79.26
69402;BME280;56589;51.992;5.924;2023-03-23T04:27:02;99528.09;;;11.21;79.49
69402;BME280;56589;51.992;5.924;2023-03-23T04:29:28;99535.13;;;11.20;78.98
69402;BME280;56589;51.992;5.924;2023-03-23T04:31:54;99531.69;;;11.20;78.77
69402;BME280;56589;51.992;5.924;2023-03-23T04:34:20;99535.13;;;11.20;78.79
69402;BME280;56589;51.992;5.924;2023-03-23T04:36:46;99531.53;;;11.21;79.00
69402;BME280;56589;51.992;5.924;2023-03-23T04:39:12;99544.56;;;11.23;78.63
69402;BME280;56589;51.992;5.924;2023-03-23T04:41:38;99540.16;;;11.23;78.97
69402;BME280;56589;51.992;5.924;2023-03-23T04:44:10;99542.50;;;11.26;78.65
69402;BME280;56589;51.992;5.924;2023-03-23T04:46:37;99550.25;;;11.28;78.74
69402;BME280;56589;51.992;5.924;2023-03-23T04:49:03;99553.00;;;11.26;78.32
69402;BME280;56589;51.992;5.924;2023-03-23T04:51:29;99555.38;;;11.29;78.47
69402;BME280;56589;51.992;5.924;2023-03-23T04:53:55;99564.91;;;11.30;78.60
69402;BME280;56589;51.992;5.924;2023-03-23T04:56:21;99563.13;;;11.31;78.19
69402;BME280;56589;51.992;5.924;2023-03-23T04:58:47;99562.97;;;11.32;77.98
69402;BME280;56589;51.992;5.924;2023-03-23T05:01:15;99575.28;;;11.32;77.82
69402;BME280;56589;51.992;5.924;2023-03-23T05:03:41;99577.09;;;11.31;77.72
69402;BME280;56589;51.992;5.924;2023-03-23T05:06:07;99575.16;;;11.33;77.95
69402;BME280;56589;51.992;5.924;2023-03-23T05:08:33;99562.00;;;11.33;77.58
69402;BME280;56589;51.992;5.924;2023-03-23T05:11:00;99558.69;;;11.31;77.21
69402;BME280;56589;51.992;5.924;2023-03-23T05:13:27;99555.94;;;11.33;77.01
69402;BME280;56589;51.992;5.924;2023-03-23T05:15:53;99560.34;;;11.32;76.92
69402;BME280;56589;51.992;5.924;2023-03-23T05:18:22;99571.16;;;11.29;77.05
69402;BME280;56589;51.992;5.924;2023-03-23T05:20:49;99580.81;;;11.29;76.74
69402;BME280;56589;51.992;5.924;2023-03-23T05:23:15;99580.94;;;11.27;77.00
69402;BME280;56589;51.992;5.924;2023-03-23T05:25:41;99574.75;;;11.28;76.81
69402;BME280;56589;51.992;5.924;2023-03-23T05:28:08;99577.47;;;11.27;76.66
69402;BME280;56589;51.992;5.924;2023-03-23T05:30:34;99582.72;;;11.27;76.80
69402;BME280;56589;51.992;5.924;2023-03-23T05:33:00;99586.19;;;11.27;76.95
69402;BME280;56589;51.992;5.924;2023-03-23T05:35:29;99581.78;;;11.28;76.51
69402;BME280;56589;51.992;5.924;2023-03-23T05:37:55;99577.38;;;11.28;76.55
69402;BME280;56589;51.992;5.924;2023-03-23T05:40:21;99585.25;;;11.28;76.28
69402;BME280;56589;51.992;5.924;2023-03-23T05:42:47;99580.00;;;11.28;76.48
69402;BME280;56589;51.992;5.924;2023-03-23T05:45:13;99576.41;;;11.29;76.27
69402;BME280;56589;51.992;5.924;2023-03-23T05:47:40;99587.75;;;11.30;75.97
69402;BME280;56589;51.992;5.924;2023-03-23T05:50:08;99574.75;;;11.28;75.98
69402;BME280;56589;51.992;5.924;2023-03-23T05:52:37;99579.03;;;11.29;76.14
69402;BME280;56589;51.992;5.924;2023-03-23T05:55:04;99578.06;;;11.30;76.49
69402;BME280;56589;51.992;5.924;2023-03-23T05:57:32;99579.72;;;11.31;76.32
69402;BME280;56589;51.992;5.924;2023-03-23T05:59:58;99584.97;;;11.31;76.21
69402;BME280;56589;51.992;5.924;2023-03-23T06:02:23;99591.19;;;11.30;76.26
69402;BME280;56589;51.992;5.924;2023-03-23T06:04:52;99592.84;;;11.31;75.96
69402;BME280;56589;51.992;5.924;2023-03-23T06:12:31;99597.88;;;11.34;75.98
69402;BME280;56589;51.992;5.924;2023-03-23T06:40:57;99619.13;;;11.62;75.28
69402;BME280;56589;51.992;5.924;2023-03-23T06:43:24;99613.16;;;11.60;74.92
69402;BME280;56589;51.992;5.924;2023-03-23T06:45:50;99615.06;;;11.58;75.08
69402;BME280;56589;51.992;5.924;2023-03-23T06:48:17;99624.50;;;11.60;75.32
69402;BME280;56589;51.992;5.924;2023-03-23T06:50:43;99635.03;;;11.60;75.41
69402;BME280;56589;51.992;5.924;2023-03-23T06:53:10;99640.16;;;11.62;75.06
69402;BME280;56589;51.992;5.924;2023-03-23T06:55:36;99638.50;;;11.61;75.04
69402;BME280;56589;51.992;5.924;2023-03-23T06:58:05;99642.09;;;11.60;75.30
69402;BME280;56589;51.992;5.924;2023-03-23T07:00:31;99635.84;;;11.61;75.11
69402;BME280;56589;51.992;5.924;2023-03-23T07:02:57;99652.31;;;11.63;75.39
69402;BME280;56589;51.992;5.924;2023-03-23T07:05:23;99640.16;;;11.62;75.25
69402;BME280;56589;51.992;5.924;2023-03-23T07:07:49;99637.66;;;11.60;75.33
69402;BME280;56589;51.992;5.924;2023-03-23T07:10:16;99648.31;;;11.59;75.02
69402;BME280;56589;51.992;5.924;2023-03-23T07:12:42;99649.97;;;11.60;75.53
69402;BME280;56589;51.992;5.924;2023-03-23T07:15:11;99654.13;;;11.62;75.17
69402;BME280;56589;51.992;5.924;2023-03-23T07:17:38;99660.94;;;11.65;75.22
69402;BME280;56589;51.992;5.924;2023-03-23T07:20:05;99666.88;;;11.67;75.11
69402;BME280;56589;51.992;5.924;2023-03-23T07:22:33;99663.13;;;11.70;74.71
69402;BME280;56589;51.992;5.924;2023-03-23T07:24:59;99654.31;;;11.71;75.25
69402;BME280;56589;51.992;5.924;2023-03-23T07:27:25;99658.47;;;11.73;75.20
69402;BME280;56589;51.992;5.924;2023-03-23T07:29:51;99666.94;;;11.77;74.88
69402;BME280;56589;51.992;5.924;2023-03-23T07:32:19;99672.59;;;11.82;75.18
69402;BME280;56589;51.992;5.924;2023-03-23T07:34:45;99649.22;;;11.88;75.04
69402;BME280;56589;51.992;5.924;2023-03-23T07:37:11;99675.94;;;11.94;74.89
69402;BME280;56589;51.992;5.924;2023-03-23T07:39:37;99693.97;;;11.98;75.13
69402;BME280;56589;51.992;5.924;2023-03-23T07:42:03;99693.00;;;11.99;74.14
69402;BME280;56589;51.992;5.924;2023-03-23T07:44:29;99687.06;;;11.97;74.45
69402;BME280;56589;51.992;5.924;2023-03-23T07:46:55;99686.91;;;11.99;74.33
69402;BME280;56589;51.992;5.924;2023-03-23T07:49:23;99702.84;;;11.97;73.84
69402;BME280;56589;51.992;5.924;2023-03-23T07:51:49;99697.81;;;11.94;73.37
69402;BME280;56589;51.992;5.924;2023-03-23T07:54:15;99698.34;;;11.88;73.57
69402;BME280;56589;51.992;5.924;2023-03-23T07:56:41;99703.06;;;11.84;73.35
69402;BME280;56589;51.992;5.924;2023-03-23T07:59:07;99701.13;;;11.77;73.95
69402;BME280;56589;51.992;5.924;2023-03-23T08:01:33;99704.81;;;11.74;74.43
69402;BME280;56589;51.992;5.924;2023-03-23T08:04:00;99713.25;;;11.68;74.36
69402;BME280;56589;51.992;5.924;2023-03-23T08:06:32;99707.81;;;11.60;74.71
69402;BME280;56589;51.992;5.924;2023-03-23T08:08:58;99715.25;;;11.55;75.07
69402;BME280;56589;51.992;5.924;2023-03-23T08:11:24;99707.88;;;11.49;75.01
69402;BME280;56589;51.992;5.924;2023-03-23T08:13:50;99724.31;;;11.41;75.62
69402;BME280;56589;51.992;5.924;2023-03-23T08:16:17;99734.25;;;11.37;75.51
69402;BME280;56589;51.992;5.924;2023-03-23T08:18:43;99732.59;;;11.36;76.17
69402;BME280;56589;51.992;5.924;2023-03-23T08:21:08;99738.66;;;11.37;76.23
69402;BME280;56589;51.992;5.924;2023-03-23T08:23:37;99736.72;;;11.39;76.31
69402;BME280;56589;51.992;5.924;2023-03-23T08:26:03;99731.22;;;11.42;76.40
69402;BME280;56589;51.992;5.924;2023-03-23T08:28:30;99732.06;;;11.43;76.95
69402;BME280;56589;51.992;5.924;2023-03-23T08:30:56;99739.69;;;11.46;76.79
69402;BME280;56589;51.992;5.924;2023-03-23T08:33:22;99750.78;;;11.49;77.07
69402;BME280;56589;51.992;5.924;2023-03-23T08:35:54;99745.38;;;11.51;77.34
69402;BME280;56589;51.992;5.924;2023-03-23T08:38:21;99751.59;;;11.50;76.91
69402;BME280;56589;51.992;5.924;2023-03-23T08:40:49;99744.69;;;11.49;76.91
69402;BME280;56589;51.992;5.924;2023-03-23T08:43:16;99736.53;;;11.52;76.97
69402;BME280;56589;51.992;5.924;2023-03-23T08:45:41;99743.34;;;11.54;77.35
69402;BME280;56589;51.992;5.924;2023-03-23T08:48:08;99738.38;;;11.61;76.94
69402;BME280;56589;51.992;5.924;2023-03-23T08:50:33;99743.44;;;11.74;77.44
69402;BME280;56589;51.992;5.924;2023-03-23T08:53:00;99735.31;;;11.86;77.26
69402;BME280;56589;51.992;5.924;2023-03-23T08:55:26;99743.13;;;11.98;76.54
69402;BME280;56589;51.992;5.924;2023-03-23T08:57:56;99749.22;;;11.98;75.94
69402;BME280;56589;51.992;5.924;2023-03-23T09:00:22;99749.91;;;12.00;75.79
69402;BME280;56589;51.992;5.924;2023-03-23T09:02:55;99758.63;;;12.01;75.38
69402;BME280;56589;51.992;5.924;2023-03-23T09:05:23;99756.72;;;12.03;75.25
69402;BME280;56589;51.992;5.924;2023-03-23T09:07:51;99752.44;;;12.02;75.08
69402;BME280;56589;51.992;5.924;2023-03-23T09:10:20;99757.69;;;12.02;75.26
69402;BME280;56589;51.992;5.924;2023-03-23T09:12:47;99760.88;;;12.05;75.13
69402;BME280;56589;51.992;5.924;2023-03-23T09:15:17;99766.56;;;12.10;75.02
69402;BME280;56589;51.992;5.924;2023-03-23T09:17:45;99755.91;;;12.12;75.08
69402;BME280;56589;51.992;5.924;2023-03-23T09:20:14;99758.97;;;12.17;74.90
69402;BME280;56589;51.992;5.924;2023-03-23T09:22:43;99744.63;;;12.21;74.30
69402;BME280;56589;51.992;5.924;2023-03-23T09:25:13;99758.91;;;12.28;73.96
69402;BME280;56589;51.992;5.924;2023-03-23T09:27:41;99759.78;;;12.38;73.99
69402;BME280;56589;51.992;5.924;2023-03-23T09:30:10;99761.16;;;12.42;73.14
69402;BME280;56589;51.992;5.924;2023-03-23T09:32:42;99765.03;;;12.48;73.42
69402;BME280;56589;51.992;5.924;2023-03-23T09:35:08;99755.09;;;12.52;72.90
69402;BME280;56589;51.992;5.924;2023-03-23T09:37:34;99767.41;;;12.61;73.09
69402;BME280;56589;51.992;5.924;2023-03-23T09:40:00;99777.69;;;12.74;72.85
69402;BME280;56589;51.992;5.924;2023-03-23T09:42:37;99778.25;;;12.87;72.41
69402;BME280;56589;51.992;5.924;2023-03-23T09:45:19;99778.28;;;12.96;71.82
69402;BME280;56589;51.992;5.924;2023-03-23T09:48:20;99776.91;;;13.02;71.32
69402;BME280;56589;51.992;5.924;2023-03-23T09:51:08;99773.13;;;13.05;71.35
69402;BME280;56589;51.992;5.924;2023-03-23T09:53:48;99781.75;;;13.16;71.56
69402;BME280;56589;51.992;5.924;2023-03-23T09:56:29;99775.34;;;13.38;71.42
69402;BME280;56589;51.992;5.924;2023-03-23T09:58:59;99773.69;;;13.57;70.74
69402;BME280;56589;51.992;5.924;2023-03-23T10:01:32;99790.59;;;13.73;70.40
69402;BME280;56589;51.992;5.924;2023-03-23T10:04:09;99801.94;;;13.84;70.13
69402;BME280;56589;51.992;5.924;2023-03-23T10:06:40;99799.28;;;13.84;68.90
69402;BME280;56589;51.992;5.924;2023-03-23T10:09:14;99795.28;;;13.80;68.16
69402;BME280;56589;51.992;5.924;2023-03-23T10:11:49;99797.47;;;13.84;68.35
69402;BME280;56589;51.992;5.924;2023-03-23T10:14:48;99800.38;;;13.91;67.44
69402;BME280;56589;51.992;5.924;2023-03-23T10:17:33;99803.88;;;13.82;67.38
69402;BME280;56589;51.992;5.924;2023-03-23T10:20:23;99799.44;;;13.72;67.16
69402;BME280;56589;51.992;5.924;2023-03-23T10:23:02;99800.59;;;13.70;67.30
69402;BME280;56589;51.992;5.924;2023-03-23T10:25:42;99795.88;;;13.64;67.24
69402;BME280;56589;51.992;5.924;2023-03-23T10:28:35;99803.38;;;13.68;67.02
69402;BME280;56589;51.992;5.924;2023-03-23T10:31:03;99808.91;;;13.75;66.57
69402;BME280;56589;51.992;5.924;2023-03-23T10:33:37;99800.56;;;13.80;66.06
69402;BME280;56589;51.992;5.924;2023-03-23T10:36:12;99809.69;;;13.85;66.39
69402;BME280;56589;51.992;5.924;2023-03-23T10:38:45;99806.75;;;13.98;66.01
69402;BME280;56589;51.992;5.924;2023-03-23T10:41:15;99813.78;;;14.17;65.91
69402;BME280;56589;51.992;5.924;2023-03-23T10:43:44;99817.00;;;14.38;66.12
69402;BME280;56589;51.992;5.924;2023-03-23T10:46:22;99820.91;;;14.62;65.11
69402;BME280;56589;51.992;5.924;2023-03-23T10:49:00;99816.13;;;14.75;64.11
69402;BME280;56589;51.992;5.924;2023-03-23T10:51:34;99820.91;;;14.89;64.49
69402;BME280;56589;51.992;5.924;2023-03-23T10:54:03;99818.75;;;15.02;63.44
69402;BME280;56589;51.992;5.924;2023-03-23T10:56:36;99825.22;;;15.08;63.25
69402;BME280;56589;51.992;5.924;2023-03-23T10:59:12;99821.75;;;15.07;62.61
69402;BME280;56589;51.992;5.924;2023-03-23T11:01:43;99824.56;;;15.06;62.97
69402;BME280;56589;51.992;5.924;2023-03-23T11:04:13;99825.75;;;15.11;61.44
69402;BME280;56589;51.992;5.924;2023-03-23T11:06:45;99825.16;;;15.00;62.90
69402;BME280;56589;51.992;5.924;2023-03-23T11:09:16;99830.53;;;14.90;62.58
69402;BME280;56589;51.992;5.924;2023-03-23T11:11:50;99827.03;;;14.90;61.73
69402;BME280;56589;51.992;5.924;2023-03-23T11:14:19;99818.75;;;15.02;62.53
69402;BME280;56589;51.992;5.924;2023-03-23T11:16:52;99828.19;;;15.23;62.46
69402;BME280;56589;51.992;5.924;2023-03-23T11:19:25;99820.75;;;15.44;61.36
69402;BME280;56589;51.992;5.924;2023-03-23T11:22:05;99809.63;;;15.58;60.54
69402;BME280;56589;51.992;5.924;2023-03-23T11:24:34;99821.75;;;15.69;59.92
69402;BME280;56589;51.992;5.924;2023-03-23T11:27:06;99824.34;;;15.79;59.89
69402;BME280;56589;51.992;5.924;2023-03-23T11:29:34;99816.44;;;15.87;59.50
69402;BME280;56589;51.992;5.924;2023-03-23T11:32:04;99807.75;;;15.95;59.14
69402;BME280;56589;51.992;5.924;2023-03-23T11:34:35;99812.63;;;16.07;57.67
69402;BME280;56589;51.992;5.924;2023-03-23T11:37:13;99816.09;;;16.08;58.66
69402;BME280;56589;51.992;5.924;2023-03-23T11:39:49;99817.38;;;16.04;59.02
69402;BME280;56589;51.992;5.924;2023-03-23T11:42:21;99819.03;;;16.05;58.55
69402;BME280;56589;51.992;5.924;2023-03-23T11:44:48;99832.34;;;16.13;58.35
69402;BME280;56589;51.992;5.924;2023-03-23T11:47:22;99830.63;;;16.04;57.76
69402;BME280;56589;51.992;5.924;2023-03-23T11:49:55;99829.56;;;15.88;58.58
69402;BME280;56589;51.992;5.924;2023-03-23T11:52:37;99832.63;;;15.76;58.63
69402;BME280;56589;51.992;5.924;2023-03-23T11:55:13;99832.25;;;15.71;58.83
69402;BME280;56589;51.992;5.924;2023-03-23T11:57:43;99822.25;;;15.64;59.05
69402;BME280;56589;51.992;5.924;2023-03-23T12:00:15;99823.16;;;15.55;59.05
69402;BME280;56589;51.992;5.924;2023-03-23T12:02:48;99825.53;;;15.41;59.08
69402;BME280;56589;51.992;5.924;2023-03-23T12:05:34;99829.84;;;15.24;59.16
69402;BME280;56589;51.992;5.924;2023-03-23T12:08:30;99822.44;;;15.09;59.30
69402;BME280;56589;51.992;5.924;2023-03-23T12:11:16;99828.09;;;14.97;59.33
69402;BME280;56589;51.992;5.924;2023-03-23T12:13:59;99822.06;;;14.87;60.21
69402;BME280;56589;51.992;5.924;2023-03-23T12:16:49;99827.63;;;14.83;60.40
69402;BME280;56589;51.992;5.924;2023-03-23T12:19:32;99822.94;;;14.77;60.49
69402;BME280;56589;51.992;5.924;2023-03-23T12:22:12;99821.88;;;14.70;61.26
69402;BME280;56589;51.992;5.924;2023-03-23T12:24:55;99814.25;;;14.57;61.71
69402;BME280;56589;51.992;5.924;2023-03-23T12:27:36;99816.91;;;14.57;62.76
69402;BME280;56589;51.992;5.924;2023-03-23T12:30:23;99810.41;;;14.79;63.69
69402;BME280;56589;51.992;5.924;2023-03-23T12:36:06;99819.31;;;15.14;62.18
69402;BME280;56589;51.992;5.924;2023-03-23T12:41:52;99808.63;;;15.16;62.80
69402;BME280;56589;51.992;5.924;2023-03-23T12:44:29;99812.09;;;15.16;62.26
69402;BME280;56589;51.992;5.924;2023-03-23T12:47:08;99804.78;;;15.10;62.35
69402;BME280;56589;51.992;5.924;2023-03-23T12:49:46;99805.06;;;15.07;61.74
69402;BME280;56589;51.992;5.924;2023-03-23T12:52:19;99790.63;;;15.01;61.79
69402;BME280;56589;51.992;5.924;2023-03-23T12:54:53;99787.63;;;14.96;61.57
69402;BME280;56589;51.992;5.924;2023-03-23T12:57:32;99789.78;;;14.83;61.52
69402;BME280;56589;51.992;5.924;2023-03-23T13:00:12;99813.56;;;14.65;61.46
69402;BME280;56589;51.992;5.924;2023-03-23T13:02:44;99825.88;;;14.47;62.24
69402;BME280;56589;51.992;5.924;2023-03-23T13:05:29;99833.78;;;14.10;64.06
69402;BME280;56589;51.992;5.924;2023-03-23T13:08:03;99816.97;;;13.54;64.97
69402;BME280;56589;51.992;5.924;2023-03-23T13:10:38;99812.84;;;13.13;66.93
69402;BME280;56589;51.992;5.924;2023-03-23T13:13:16;99803.22;;;12.92;67.89
69402;BME280;56589;51.992;5.924;2023-03-23T13:15:55;99804.75;;;12.85;68.65
69402;BME280;56589;51.992;5.924;2023-03-23T13:18:37;99809.59;;;12.80;68.21
69402;BME280;56589;51.992;5.924;2023-03-23T13:21:14;99825.09;;;12.74;68.87
69402;BME280;56589;51.992;5.924;2023-03-23T13:23:48;99842.84;;;12.71;68.90
69402;BME280;56589;51.992;5.924;2023-03-23T13:26:18;99851.88;;;12.69;69.00
69402;BME280;56589;51.992;5.924;2023-03-23T13:28:55;99836.47;;;12.64;69.43
69402;BME280;56589;51.992;5.924;2023-03-23T13:31:24;99833.84;;;12.64;69.79
69402;BME280;56589;51.992;5.924;2023-03-23T13:33:58;99833.88;;;12.84;70.50
69402;BME280;56589;51.992;5.924;2023-03-23T13:36:29;99827.38;;;13.07;70.65
69402;BME280;56589;51.992;5.924;2023-03-23T13:38:59;99819.34;;;13.28;70.50
69402;BME280;56589;51.992;5.924;2023-03-23T13:41:27;99816.72;;;13.47;70.18
69402;BME280;56589;51.992;5.924;2023-03-23T13:44:05;99824.59;;;13.67;70.49
69402;BME280;56589;51.992;5.924;2023-03-23T13:46:41;99824.72;;;13.75;69.64
69402;BME280;56589;51.992;5.924;2023-03-23T13:49:18;99843.88;;;13.77;69.46
69402;BME280;56589;51.992;5.924;2023-03-23T13:51:53;99843.19;;;13.75;69.31
69402;BME280;56589;51.992;5.924;2023-03-23T13:54:30;99835.28;;;13.65;69.47
69402;BME280;56589;51.992;5.924;2023-03-23T13:57:24;99833.50;;;13.56;69.81
69402;BME280;56589;51.992;5.924;2023-03-23T14:00:24;99817.97;;;13.53;70.27